シャージャラル国際空港(ダッカ)の過去48時間の天気

シャージャラル国際空港(ダッカ) (Kurmitola, Dia)

現在時刻: 10/4 18:54 +06 (10/4 12:54 UTC) 以下の時間は現地時間です。

過去48時間のMETAR気象情報
時間 風向 風速(m/s) 視程 気温(℃) 湿度(%) 気圧(hPa) 天気現象
4 18:30 南南西 3 3500m 29 70 1009 煙霧
4 18:00 南南西 5 3500m 30 66 1008 煙霧
4 17:30 南西 4 3500m 30 66 1008 煙霧
4 17:00 南西 6 3200m 31 62 1008 霧雨
4 16:30 南南西 4 3500m 32 59 1007 煙霧
4 16:00 2 3500m 32 59 1007 煙霧
4 15:30 3 3500m 33 59 1006 煙霧
4 15:00 南南東 3 3500m 33 59 1007 煙霧
4 14:30 南南東 2 3500m 33 59 1007 煙霧
4 14:00 3 3500m 32 63 1008 煙霧
4 13:30 4 3500m 31 66 1008 煙霧
4 13:00 南東 3 3500m 31 66 1008 煙霧
4 12:30 南南東 3 3500m 31 66 1009 煙霧
4 12:00 東南東 3 3500m 31 66 1009 煙霧
4 11:30 3 3500m 31 66 1010 煙霧
4 11:00 3 3500m 30 70 1010 煙霧
4 10:30 3 3500m 30 70 1011 煙霧
4 10:00 東北東 4 3500m 29 70 1011 煙霧
4 09:30 3 3500m 29 70 1010 煙霧
4 09:00 静穏 0 3500m 29 74 1010 煙霧
4 08:30 静穏 0 3500m 28 79 1010 煙霧
4 08:00 静穏 0 3500m 28 79 1010 煙霧
4 07:30 静穏 0 3500m 28 79 1009 煙霧
4 07:00 静穏 0 3500m 28 79 1009 煙霧
4 06:30 静穏 0 3500m 27 84 1008 煙霧
4 05:30 静穏 0 3500m 27 84 1008 煙霧
4 05:00 静穏 0 3500m 27 84 1008 煙霧
4 04:30 静穏 0 3500m 27 84 1008 煙霧
4 04:00 静穏 0 3500m 27 84 1008 煙霧
4 03:30 静穏 0 3500m 27 84 1008 煙霧
4 03:00 南東 2 3500m 27 84 1008 煙霧
4 02:30 東南東 3 3500m 27 89 1009 煙霧
4 02:00 東南東 3 3500m 27 89 1009 煙霧
4 01:30 東南東 3 3200m 26 89 1009
4 01:00 南東 3 3200m 26 89 1009
4 00:30 南東 4 3200m 26 89 1009
4 00:00 南南東 4 3200m 26 84 1009
3 23:30 南南東 6 3200m 27 84 1009
3 23:00 南東 5 3200m 27 74 1009 霧雨
3 22:30 東南東 2 3500m 28 74 1009 煙霧
3 22:00 東南東 2 3500m 28 74 1009 煙霧
3 21:30 東南東 4 3500m 28 74 1009 煙霧
3 21:00 東南東 3 3500m 28 74 1009 煙霧
3 20:30 東南東 2 3500m 28 74 1008 煙霧
3 20:00 東南東 3 3500m 28 74 1008 煙霧
3 19:30 南東 3 3500m 28 70 1007 煙霧
3 19:00 東南東 3 3500m 28 70 1007 煙霧
3 18:30 南東 2 3500m 28 70 1006 煙霧
3 18:00 南南東 3 3500m 29 70 1006 煙霧
3 17:30 4 3500m 29 70 1005 煙霧
3 17:00 南南東 4 3500m 29 70 1005 煙霧
3 16:30 5 3500m 30 75 1005 煙霧
3 16:00 4 3500m 30 75 1004 煙霧
3 15:00 4 3500m 29 79 1004 煙霧
3 14:30 6 3500m 29 84 1004 煙霧
3 14:00 4 3500m 28 84 1005 煙霧
3 13:30 3 3500m 27 89 1005 煙霧
3 13:00 4 3500m 27 89 1005 霧雨
3 12:30 静穏 0 3500m 28 89 1006 霧雨
3 12:00 南南東 3 3500m 28 89 1006 霧雨
3 11:30 南東 4 3500m 28 89 1006 霧雨
3 11:00 東南東 3 3200m 27 89 1007
3 10:30 南東 2 3200m 27 89 1007 霧雨
3 10:00 東南東 2 3200m 27 89 1007 霧雨
3 09:30 東南東 5 3200m 27 89 1007 霧雨
3 09:00 南南東 4 3500m 28 84 1007 霧雨
3 08:30 3 3500m 28 84 1006 霧雨
3 08:00 5 3500m 28 84 1006 煙霧
3 07:30 3 3500m 28 84 1005 煙霧
3 07:00 3 3500m 27 84 1005 煙霧
3 06:30 3 3500m 26 84 1005 煙霧
3 06:00 3 3500m 26 84 1004 煙霧
3 05:30 3 3500m 26 84 1004 煙霧
3 05:00 静穏 0 3500m 26 84 1004 煙霧
3 04:30 東北東 2 3500m 26 84 1003 煙霧
3 04:00 静穏 0 3500m 26 84 1003 煙霧
3 03:30 静穏 0 3500m 26 84 1003 煙霧
3 03:00 静穏 0 3500m 27 84 1003 煙霧
3 02:30 静穏 0 3500m 27 84 1004 煙霧
3 02:00 静穏 0 3500m 27 79 1004 煙霧
3 01:30 南南東 2 3500m 27 79 1004 煙霧
VGHS 041230Z 21005KT 3500 HZ BKN010 FEW025CB OVC100 29/23 Q1009 TEMPO TSRA
VGHS 041200Z 20010KT 3500 HZ SCT012 FEW025CB BKN100 30/23 Q1008 TEMPO TSRA
VGHS 041130Z 23007KT 3500 HZ SCT010 FEW025CB BKN100 30/23 Q1008 TEMPO TSRA
VGHS 041100Z 22012KT 3200 DZ SCT010 FEW025CB BKN100 31/23 Q1008 TEMPO TSRA
VGHS 041030Z 20008KT 3500 HZ FEW015 SCT100 32/23 Q1007 NOSIG
VGHS 041000Z 17004KT 3500 HZ FEW015 SCT100 32/23 Q1007 NOSIG
VGHS 040930Z 19006KT 3500 HZ SCT015 BKN100 33/24 Q1006 NOSIG
VGHS 040900Z 16005KT 3500 HZ FEW015 SCT100 33/24 Q1007 NOSIG
VGHS 040830Z 15003KT 3500 HZ FEW015 SCT100 33/24 Q1007 NOSIG
VGHS 040800Z 18006KT 3500 HZ SCT012 BKN100 32/24 Q1008 NOSIG
VGHS 040730Z 18007KT 3500 HZ SCT012 BKN100 31/24 Q1008 NOSIG
VGHS 040700Z 13005KT 3500 HZ SCT012 BKN100 31/24 Q1008 NOSIG
VGHS 040630Z 15006KT 3500 HZ SCT012 BKN100 31/24 Q1009 NOSIG
VGHS 040600Z 12006KT 3500 HZ SCT012 BKN100 31/24 Q1009 NOSIG
VGHS 040530Z 09005KT 3500 HZ SCT012 BKN100 31/24 Q1010 NOSIG
VGHS 040500Z 10005KT 3500 HZ SCT012 BKN100 30/24 Q1010 NOSIG
VGHS 040430Z 09006KT 3500 HZ SCT012 BKN100 30/24 Q1011 NOSIG
VGHS 040400Z 07008KT 3500 HZ SCT012 BKN100 29/23 Q1011 NOSIG
VGHS 040330Z 09005KT 3500 HZ SCT012 BKN100 29/23 Q1010 NOSIG
VGHS 040300Z 00000KT 3500 HZ SCT012 BKN100 29/24 Q1010 NOSIG
VGHS 040230Z 00000KT 3500 HZ SCT012 BKN100 28/24 Q1010 NOSIG
VGHS 040200Z 00000KT 3500 HZ SCT012 BKN100 28/24 Q1010 NOSIG
VGHS 040130Z 00000KT 3500 HZ SCT010 BKN100 28/24 Q1009 NOSIG
VGHS 040100Z 00000KT 3500 HZ SCT010 BKN100 28/24 Q1009 NOSIG
VGHS 040030Z 00000KT 3500 HZ SCT010 BKN100 27/24 Q1008 NOSIG
VGHS 032330Z 00000KT 3500 HZ SCT010 BKN100 27/24 Q1008 TEMPO RA
VGHS 032300Z 00000KT 3500 HZ SCT010 BKN100 27/24 Q1008 TEMPO RA
VGHS 032230Z 00000KT 3500 HZ BKN010 BKN100 27/24 Q1008 TEMPO RA
VGHS 032200Z 00000KT 3500 HZ BKN010 BKN100 27/24 Q1008 TEMPO RA
VGHS 032130Z 00000KT 3500 HZ BKN010 BKN100 27/24 Q1008 TEMPO RA
VGHS 032100Z 13004KT 3500 HZ BKN010 BKN100 27/24 Q1008 TEMPO RA
VGHS 032030Z 12005KT 3500 HZ BKN010 BKN100 27/25 Q1009 TEMPO RA
VGHS 032000Z 12005KT 3500 HZ BKN010 BKN100 27/25 Q1009 TEMPO RA
VGHS 031930Z 12006KT 3200 RA BKN010 FEW025CB OVC090 26/24 Q1009 TEMPO TSRA
VGHS 031900Z 14006KT 3200 RA BKN010 FEW025CB OVC090 26/24 Q1009 TEMPO TSRA
VGHS 031830Z 13008KT 3200 RA BKN010 FEW025CB OVC090 26/24 Q1009 TEMPO TSRA
VGHS 031800Z 16008KT 3200 RA BKN010 FEW025CB OVC090 26/23 Q1009 TEMPO TSRA
VGHS 031730Z 16012KT 3200 RA BKN010 FEW025CB OVC090 27/24 Q1009 TEMPO TSRA
VGHS 031700Z 14010KT 3200 DZ SCT012 SCT012 FEW025CB BKN100 27/22 Q1009 TEMPO TSRA
VGHS 031630Z 12003KT 3500 HZ SCT012 FEW025CB BKN100 28/23 Q1009 TEMPO TSRA
VGHS 031600Z 11003KT 3500 HZ SCT012 BKN100 28/23 Q1009 NOSIG
VGHS 031530Z 12007KT 3500 HZ SCT012 BKN100 28/23 Q1009 NOSIG
VGHS 031500Z 11005KT 3500 HZ SCT012 BKN100 28/23 Q1009 NOSIG
VGHS 031430Z 12003KT 3500 HZ SCT012 BKN100 28/23 Q1008 NOSIG
VGHS 031400Z 12006KT 3500 HZ SCT012 BKN100 28/23 Q1008 NOSIG
VGHS 031330Z 14005KT 3500 HZ SCT012 BKN100 28/22 Q1007 NOSIG
VGHS 031300Z 12005KT 3500 HZ SCT012 BKN100 28/22 Q1007 NOSIG
VGHS 031230Z 13004KT 3500 HZ SCT012 BKN100 28/22 Q1006 NOSIG
VGHS 031200Z 16006KT 3500 HZ SCT012 BKN100 29/23 Q1006 NOSIG
VGHS 031130Z 17008KT 3500 HZ SCT012 BKN100 29/23 Q1005 NOSIG
VGHS 031100Z 16008KT 3500 HZ SCT012 BKN100 29/23 Q1005 NOSIG
VGHS 031030Z 17010KT 3500 HZ SCT012 BKN100 30/25 Q1005 NOSIG
VGHS 031000Z 17008KT 3500 HZ SCT012 BKN100 30/25 Q1004 NOSIG
VGHS 030900Z 17008KT 3500 HZ BKN010 BKN100 29/25 Q1004 NOSIG
VGHS 030830Z 19012KT 3500 HZ BKN010 FEW025CB OVC100 29/26 Q1004 TEMPO RA
VGHS 030800Z 18008KT 3500 HZ BKN010 FEW025CB OVC100 28/25 Q1005 TEMPO TSRA
VGHS 030730Z 17005KT 3500 DHZ BKN010 FEW025CB OVC100 27/25 Q1005 TEMPO TSRA
VGHS 030700Z 18008KT 3500 DZ BKN010 FEW025CB OVC100 27/25 Q1005 TEMPO TSRA
VGHS 030630Z 00000KT 3500 DZ BKN010 FEW025CB OVC100 28/26 Q1006 TEMPO TSRA
VGHS 030600Z 15005KT 3500 DZ BKN010 FEW025CB OVC100 28/26 Q1006 TEMPO TSRA
VGHS 030530Z 14007KT 3500 DZ BKN010 FEW025CB OVC100 28/26 Q1006 TEMPO TSRA
VGHS 030500Z 12006KT 3200 RA BKN010 FEW025CB OVC090 27/25 Q1007 TEMPO TSRA
VGHS 030430Z 13003KT 3200 DZ BKN010 FEW025CB OVC100 27/25 Q1007 TEMPO TSRA
VGHS 030400Z 12004KT 3200 DZ BKN010 FEW025CB OVC100 27/25 Q1007 TEMPO TSRA
VGHS 030330Z 11009KT 3200 DZ BKN010 FEW025CB OVC100 27/25 Q1007 TEMPO TSRA
VGHS 030300Z 15007KT 3500 DZ SCT012 FEW025CB BKN100 28/25 Q1007 TEMPO TSRA
VGHS 030230Z 10006KT 3500 DZ SCT012 FEW025CB BKN100 28/25 Q1006 TEMPO TSRA
VGHS 030200Z 09009KT 3500 HZ SCT012 FEW025CB BKN100 28/25 Q1006 TEMPO TSRA
VGHS 030130Z 09006KT 3500 HZ SCT012 FEW025CB BKN100 28/25 Q1005 TEMPO TSRA
VGHS 030100Z 09005KT 3500 HZ SCT012 FEW025CB BKN100 27/24 Q1005 TEMPO TSRA
VGHS 030030Z 09005KT 3500 HZ SCT012 FEW025CB BKN100 26/23 Q1005 TEMPO TSRA
VGHS 030000Z 08006KT 3500 HZ SCT012 BKN100 26/23 Q1004 NOSIG
VGHS 022330Z 09005KT 3500 HZ SCT012 BKN100 26/23 Q1004 NOSIG
VGHS 022300Z 00000KT 3500 HZ SCT012 BKN100 26/23 Q1004 NOSIG
VGHS 022230Z 07004KT 3500 HZ SCT012 BKN100 26/23 Q1003 NOSIG
VGHS 022200Z 00000KT 3500 HZ BKN010 BKN100 26/23 Q1003 TEMPO RA
VGHS 022130Z 00000KT 3500 HZ BKN010 BKN100 26/23 Q1003 TEMPO RA
VGHS 022100Z 00000KT 3500 HZ BKN010 BKN100 27/24 Q1003 TEMPO RA
VGHS 022030Z 00000KT 3500 HZ BKN010 FEW025CB BKN100 27/24 Q1004 TEMPO TSRA
VGHS 022000Z 00000KT 3500 HZ BKN010 FEW025CB BKN100 27/23 Q1004 TEMPO TSRA
VGHS 021930Z 16003KT 3500 HZ SCT010 FEW025CB BKN100 27/23 Q1004 TEMPO TSRA